DAL8891 KLAX-KSTL
Flight info
| Callsign | DAL8891 |
|---|---|
| Flight time | N/A |
| Altitude | 37000 |
| Route | ORCKA5 LAS J146 DICEE HELPS GCK KIRKE J110 BUM KAYLA3 |
| Aircraft | A321/M-SDE3FGHIRWY/LB1 |
Departure
| Time | 2026-04-25 16:45 |
|---|---|
| Airport | Los Angeles International Airport (KLAX) |
Arrival
| Time | N/A |
|---|---|
| Airport | St. Louis Lambert International Airport (KSTL) |
| Time | Latitude | Longitude | Altitude | Speed | Heading |
|---|---|---|---|---|---|
| 2026-04-25 16:32 | 33.93290 | -118.39892 | 93 ft | 0 kts | 109° |
| 2026-04-25 16:41 | 33.93289 | -118.39886 | 93 ft | 4 kts | 99° |
| 2026-04-25 16:41 | 33.93294 | -118.39867 | 95 ft | 10 kts | 61° |
| 2026-04-25 16:41 | 33.93468 | -118.39697 | 93 ft | 20 kts | 83° |
| 2026-04-25 16:42 | 33.93488 | -118.39497 | 94 ft | 25 kts | 83° |
| 2026-04-25 16:42 | 33.93510 | -118.39286 | 95 ft | 25 kts | 83° |
| 2026-04-25 16:42 | 33.93532 | -118.39076 | 94 ft | 25 kts | 83° |
| 2026-04-25 16:42 | 33.93554 | -118.38871 | 93 ft | 25 kts | 83° |
| 2026-04-25 16:43 | 33.93574 | -118.38666 | 93 ft | 24 kts | 83° |
| 2026-04-25 16:43 | 33.93594 | -118.38468 | 94 ft | 24 kts | 83° |
| 2026-04-25 16:43 | 33.93614 | -118.38307 | 94 ft | 12 kts | 71° |
| 2026-04-25 16:43 | 33.93653 | -118.38275 | 98 ft | 5 kts | 1° |
| 2026-04-25 16:44 | 33.93692 | -118.38283 | 97 ft | 10 kts | 349° |
| 2026-04-25 16:44 | 33.93729 | -118.38323 | 97 ft | 2 kts | 268° |
| 2026-04-25 16:44 | 33.93729 | -118.38327 | 97 ft | 1 kts | 269° |
| 2026-04-25 16:44 | 33.93720 | -118.38440 | 98 ft | 44 kts | 263° |
| 2026-04-25 16:45 | 33.93650 | -118.39100 | 96 ft | 111 kts | 263° |
| 2026-04-25 16:45 | 33.93533 | -118.40233 | 97 ft | 159 kts | 262° |
| 2026-04-25 16:45 | 33.93391 | -118.41591 | 590 ft | 160 kts | 261° |
| 2026-04-25 16:45 | 33.93260 | -118.42933 | 1211 ft | 162 kts | 261° |
| 2026-04-25 16:46 | 33.93137 | -118.44298 | 1821 ft | 165 kts | 262° |
| 2026-04-25 16:46 | 33.93028 | -118.45681 | 2414 ft | 167 kts | 262° |
| 2026-04-25 16:46 | 33.92717 | -118.47060 | 2735 ft | 182 kts | 246° |
| 2026-04-25 16:46 | 33.92549 | -118.47545 | 2805 ft | 189 kts | 244° |
| 2026-04-25 16:47 | 33.91612 | -118.50004 | 3604 ft | 191 kts | 243° |
| 2026-04-25 16:47 | 33.91070 | -118.51437 | 4238 ft | 184 kts | 244° |
| 2026-04-25 16:47 | 33.90559 | -118.52819 | 4877 ft | 177 kts | 245° |
| 2026-04-25 16:47 | 33.90066 | -118.54170 | 5418 ft | 177 kts | 246° |
| 2026-04-25 16:48 | 33.89532 | -118.55504 | 5927 ft | 177 kts | 235° |
| 2026-04-25 16:48 | 33.88521 | -118.56315 | 6437 ft | 181 kts | 195° |
| 2026-04-25 16:48 | 33.87270 | -118.56116 | 6923 ft | 188 kts | 155° |
| 2026-04-25 16:48 | 33.86380 | -118.54964 | 7415 ft | 194 kts | 115° |
| 2026-04-25 16:49 | 33.86085 | -118.53382 | 7911 ft | 196 kts | 90° |
| 2026-04-25 16:49 | 33.86450 | -118.51823 | 8375 ft | 197 kts | 55° |
| 2026-04-25 16:49 | 33.87421 | -118.50672 | 8772 ft | 199 kts | 36° |
| 2026-04-25 16:49 | 33.88439 | -118.49532 | 9157 ft | 205 kts | 42° |
| 2026-04-25 16:50 | 33.89455 | -118.48284 | 9465 ft | 215 kts | 43° |
| 2026-04-25 16:50 | 33.90528 | -118.46947 | 9687 ft | 228 kts | 43° |
| 2026-04-25 16:50 | 33.91665 | -118.45535 | 9904 ft | 240 kts | 43° |
| 2026-04-25 16:50 | 33.92839 | -118.44039 | 10098 ft | 251 kts | 48° |
| 2026-04-25 16:51 | 33.93875 | -118.42295 | 10288 ft | 262 kts | 55° |
| 2026-04-25 16:51 | 33.94916 | -118.40423 | 10557 ft | 271 kts | 54° |
| 2026-04-25 16:51 | 33.95988 | -118.38524 | 10932 ft | 277 kts | 54° |
| 2026-04-25 16:51 | 33.96343 | -118.37898 | 11047 ft | 279 kts | 54° |
| 2026-04-25 16:52 | 33.98233 | -118.34566 | 11686 ft | 300 kts | 54° |
| 2026-04-25 16:52 | 33.99437 | -118.32447 | 12189 ft | 314 kts | 54° |
| 2026-04-25 16:52 | 34.00702 | -118.30221 | 12858 ft | 328 kts | 55° |
| 2026-04-25 16:52 | 34.02008 | -118.27918 | 13548 ft | 341 kts | 55° |
| 2026-04-25 16:53 | 34.04865 | -118.22876 | 14194 ft | 385 kts | 55° |
| 2026-04-25 16:53 | 34.06398 | -118.20171 | 14761 ft | 394 kts | 55° |
| 2026-04-25 16:53 | 34.07952 | -118.17427 | 15381 ft | 398 kts | 55° |
| 2026-04-25 16:54 | 34.09521 | -118.14654 | 16044 ft | 402 kts | 54° |
| 2026-04-25 16:54 | 34.11090 | -118.11882 | 16708 ft | 407 kts | 55° |
| 2026-04-25 16:54 | 34.12689 | -118.09050 | 17327 ft | 411 kts | 55° |
| 2026-04-25 16:54 | 34.14306 | -118.06186 | 17960 ft | 415 kts | 55° |
| 2026-04-25 16:55 | 34.15935 | -118.03295 | 18570 ft | 418 kts | 54° |
| 2026-04-25 16:55 | 34.17579 | -118.00379 | 19123 ft | 421 kts | 55° |
| 2026-04-25 16:55 | 34.19235 | -117.97438 | 19680 ft | 425 kts | 55° |
| 2026-04-25 16:55 | 34.20905 | -117.94468 | 20217 ft | 429 kts | 55° |
| 2026-04-25 16:56 | 34.22586 | -117.91474 | 20757 ft | 432 kts | 55° |
| 2026-04-25 16:56 | 34.24278 | -117.88456 | 21237 ft | 436 kts | 55° |
| 2026-04-25 16:56 | 34.25960 | -117.85450 | 21730 ft | 440 kts | 55° |
| 2026-04-25 16:56 | 34.27682 | -117.82372 | 22243 ft | 443 kts | 55° |
| 2026-04-25 16:57 | 34.29415 | -117.79270 | 22748 ft | 447 kts | 55° |
| 2026-04-25 16:57 | 34.30004 | -117.78215 | 22921 ft | 448 kts | 55° |
| 2026-04-25 16:57 | 34.32924 | -117.72993 | 23739 ft | 453 kts | 55° |
| 2026-04-25 16:57 | 34.34696 | -117.69823 | 24165 ft | 457 kts | 55° |
| 2026-04-25 16:58 | 34.36501 | -117.66645 | 24583 ft | 459 kts | 54° |
| 2026-04-25 16:58 | 34.38361 | -117.63488 | 24990 ft | 462 kts | 53° |
| 2026-04-25 16:58 | 34.39619 | -117.61401 | 25228 ft | 464 kts | 53° |
| 2026-04-25 16:58 | 34.41539 | -117.58246 | 25608 ft | 467 kts | 52° |
| 2026-04-25 16:59 | 34.43474 | -117.55067 | 25994 ft | 470 kts | 52° |
| 2026-04-25 16:59 | 34.45407 | -117.51865 | 26438 ft | 472 kts | 53° |
| 2026-04-25 16:59 | 34.47341 | -117.48637 | 26855 ft | 474 kts | 53° |
| 2026-04-25 16:59 | 34.49280 | -117.45380 | 27237 ft | 477 kts | 53° |
| 2026-04-25 17:00 | 34.51218 | -117.42108 | 27598 ft | 480 kts | 53° |
| 2026-04-25 17:00 | 34.53168 | -117.38809 | 27965 ft | 482 kts | 53° |
| 2026-04-25 17:00 | 34.55126 | -117.35493 | 28331 ft | 485 kts | 53° |
| 2026-04-25 17:00 | 34.57075 | -117.32201 | 28685 ft | 488 kts | 53° |
| 2026-04-25 17:01 | 34.59059 | -117.28853 | 29069 ft | 490 kts | 53° |
| 2026-04-25 17:01 | 34.61058 | -117.25482 | 29426 ft | 492 kts | 53° |
| 2026-04-25 17:01 | 34.63061 | -117.22100 | 29763 ft | 495 kts | 53° |
| 2026-04-25 17:01 | 34.65080 | -117.18683 | 30002 ft | 497 kts | 53° |
| 2026-04-25 17:02 | 34.67101 | -117.15260 | 30270 ft | 500 kts | 53° |
| 2026-04-25 17:02 | 34.69129 | -117.11817 | 30518 ft | 503 kts | 53° |
| 2026-04-25 17:02 | 34.71164 | -117.08356 | 30801 ft | 505 kts | 53° |
| 2026-04-25 17:02 | 34.72518 | -117.06052 | 30985 ft | 507 kts | 53° |
| 2026-04-25 17:03 | 34.75265 | -117.01366 | 31359 ft | 510 kts | 53° |
| 2026-04-25 17:03 | 34.77322 | -116.97854 | 31752 ft | 510 kts | 53° |
| 2026-04-25 17:03 | 34.79380 | -116.94345 | 32158 ft | 509 kts | 53° |
| 2026-04-25 17:03 | 34.81438 | -116.90836 | 32557 ft | 509 kts | 53° |
| 2026-04-25 17:04 | 34.83494 | -116.87330 | 32993 ft | 508 kts | 53° |
| 2026-04-25 17:04 | 34.85547 | -116.83824 | 33387 ft | 508 kts | 53° |
| 2026-04-25 17:04 | 34.87598 | -116.80308 | 33677 ft | 510 kts | 53° |
| 2026-04-25 17:04 | 34.89622 | -116.76827 | 34001 ft | 511 kts | 53° |
| 2026-04-25 17:05 | 34.91699 | -116.73318 | 34291 ft | 510 kts | 50° |
| 2026-04-25 17:05 | 34.96461 | -116.66912 | 34832 ft | 510 kts | 44° |
| 2026-04-25 17:05 | 34.98875 | -116.63746 | 35099 ft | 510 kts | 44° |
| 2026-04-25 17:06 | 35.01291 | -116.60569 | 35365 ft | 511 kts | 44° |
| 2026-04-25 17:06 | 35.03705 | -116.57382 | 35637 ft | 512 kts | 44° |
| 2026-04-25 17:06 | 35.06119 | -116.54184 | 35896 ft | 513 kts | 44° |
| 2026-04-25 17:06 | 35.08539 | -116.50973 | 36132 ft | 514 kts | 44° |
| 2026-04-25 17:07 | 35.10965 | -116.47757 | 36378 ft | 515 kts | 44° |
| 2026-04-25 17:07 | 35.13389 | -116.44543 | 36638 ft | 515 kts | 44° |
| 2026-04-25 17:07 | 35.15822 | -116.41323 | 36825 ft | 516 kts | 44° |
| 2026-04-25 17:07 | 35.18249 | -116.38111 | 36863 ft | 513 kts | 44° |
| 2026-04-25 17:08 | 35.23073 | -116.31711 | 36846 ft | 509 kts | 44° |
| 2026-04-25 17:08 | 35.27837 | -116.25380 | 36837 ft | 509 kts | 44° |
| 2026-04-25 17:09 | 35.32634 | -116.18988 | 36831 ft | 508 kts | 45° |
| 2026-04-25 17:09 | 35.37417 | -116.12595 | 36848 ft | 508 kts | 45° |
| 2026-04-25 17:10 | 35.42192 | -116.06207 | 36850 ft | 508 kts | 45° |
| 2026-04-25 17:10 | 35.46936 | -115.99849 | 36843 ft | 508 kts | 45° |
| 2026-04-25 17:11 | 35.51708 | -115.93440 | 36856 ft | 508 kts | 45° |
| 2026-04-25 17:11 | 35.56470 | -115.87025 | 36855 ft | 508 kts | 45° |
| 2026-04-25 17:12 | 35.61235 | -115.80607 | 36842 ft | 508 kts | 45° |
| 2026-04-25 17:12 | 35.65995 | -115.74168 | 36847 ft | 509 kts | 45° |
| 2026-04-25 17:13 | 35.69913 | -115.68776 | 36843 ft | 509 kts | 45° |
| 2026-04-25 17:13 | 35.75411 | -115.61166 | 36852 ft | 509 kts | 45° |
| 2026-04-25 17:14 | 35.80106 | -115.54693 | 36843 ft | 510 kts | 45° |
| 2026-04-25 17:14 | 35.84832 | -115.48170 | 36855 ft | 510 kts | 45° |
| 2026-04-25 17:15 | 35.89540 | -115.41638 | 36854 ft | 513 kts | 45° |
| 2026-04-25 17:15 | 35.94349 | -115.34971 | 36850 ft | 526 kts | 45° |
| 2026-04-25 17:16 | 35.99224 | -115.28190 | 36858 ft | 528 kts | 45° |
| 2026-04-25 17:16 | 36.04066 | -115.21444 | 36830 ft | 528 kts | 45° |
| 2026-04-25 17:17 | 36.08382 | -115.14056 | 36833 ft | 533 kts | 62° |
| 2026-04-25 17:17 | 36.11179 | -115.05584 | 36835 ft | 533 kts | 69° |
| 2026-04-25 17:18 | 36.13817 | -114.97006 | 36769 ft | 533 kts | 69° |
| 2026-04-25 17:18 | 36.16466 | -114.88428 | 36764 ft | 533 kts | 69° |
| 2026-04-25 17:19 | 36.19085 | -114.79902 | 36751 ft | 533 kts | 69° |
| 2026-04-25 17:19 | 36.21712 | -114.71316 | 36732 ft | 533 kts | 69° |
| 2026-04-25 17:20 | 36.24330 | -114.62718 | 36719 ft | 533 kts | 69° |
| 2026-04-25 17:20 | 36.26950 | -114.54119 | 36710 ft | 533 kts | 69° |
| 2026-04-25 17:21 | 36.29568 | -114.45523 | 36738 ft | 533 kts | 69° |
| 2026-04-25 17:21 | 36.32169 | -114.36925 | 36739 ft | 533 kts | 69° |
| 2026-04-25 17:22 | 36.34326 | -114.29769 | 36728 ft | 533 kts | 69° |
| 2026-04-25 17:22 | 36.37364 | -114.19707 | 36731 ft | 533 kts | 69° |
| 2026-04-25 17:23 | 36.39933 | -114.11141 | 36735 ft | 533 kts | 70° |
| 2026-04-25 17:23 | 36.42510 | -114.02508 | 36737 ft | 533 kts | 69° |
| 2026-04-25 17:24 | 36.45081 | -113.93867 | 36750 ft | 534 kts | 69° |
| 2026-04-25 17:24 | 36.47651 | -113.85211 | 36755 ft | 534 kts | 70° |
| 2026-04-25 17:25 | 36.50219 | -113.76548 | 36759 ft | 534 kts | 70° |
| 2026-04-25 17:25 | 36.52779 | -113.67875 | 36755 ft | 535 kts | 70° |
| 2026-04-25 17:26 | 36.55333 | -113.59182 | 36765 ft | 535 kts | 70° |
| 2026-04-25 17:26 | 36.57890 | -113.50469 | 36762 ft | 536 kts | 70° |
| 2026-04-25 17:27 | 36.60447 | -113.41761 | 36773 ft | 536 kts | 70° |
| 2026-04-25 17:27 | 36.62136 | -113.35981 | 36768 ft | 536 kts | 70° |
| 2026-04-25 17:28 | 36.65516 | -113.24337 | 36784 ft | 537 kts | 70° |
| 2026-04-25 17:28 | 36.68049 | -113.15583 | 36815 ft | 537 kts | 70° |
| 2026-04-25 17:29 | 36.70576 | -113.06823 | 36843 ft | 537 kts | 70° |
| 2026-04-25 17:29 | 36.73096 | -112.98053 | 36861 ft | 537 kts | 70° |
| 2026-04-25 17:30 | 36.75607 | -112.89273 | 36853 ft | 537 kts | 70° |
| 2026-04-25 17:30 | 36.78118 | -112.80491 | 36845 ft | 537 kts | 70° |
| 2026-04-25 17:31 | 36.80625 | -112.71704 | 36833 ft | 538 kts | 70° |
| 2026-04-25 17:31 | 36.83109 | -112.62966 | 36794 ft | 538 kts | 70° |
| 2026-04-25 17:32 | 36.85602 | -112.54164 | 36776 ft | 538 kts | 70° |
| 2026-04-25 17:32 | 36.88081 | -112.45347 | 36776 ft | 538 kts | 70° |
| 2026-04-25 17:33 | 36.90547 | -112.36515 | 36753 ft | 538 kts | 70° |
| 2026-04-25 17:33 | 36.93016 | -112.27685 | 36753 ft | 539 kts | 70° |
| 2026-04-25 17:34 | 36.95496 | -112.18845 | 36738 ft | 539 kts | 70° |
| 2026-04-25 17:34 | 36.97968 | -112.09996 | 36742 ft | 539 kts | 70° |
| 2026-04-25 17:35 | 37.00429 | -112.01136 | 36753 ft | 538 kts | 70° |
| 2026-04-25 17:35 | 37.02868 | -111.92295 | 36756 ft | 538 kts | 70° |
| 2026-04-25 17:36 | 37.05311 | -111.83444 | 36792 ft | 538 kts | 70° |
| 2026-04-25 17:36 | 37.07734 | -111.74649 | 36768 ft | 538 kts | 70° |
| 2026-04-25 17:37 | 37.10169 | -111.65783 | 36760 ft | 538 kts | 70° |
| 2026-04-25 17:37 | 37.12589 | -111.56915 | 36754 ft | 538 kts | 70° |
| 2026-04-25 17:38 | 37.14208 | -111.50974 | 36840 ft | 538 kts | 70° |
| 2026-04-25 17:38 | 37.17419 | -111.39149 | 36817 ft | 538 kts | 70° |
| 2026-04-25 17:39 | 37.19808 | -111.30316 | 36796 ft | 538 kts | 70° |
| 2026-04-25 17:39 | 37.21993 | -111.21332 | 36759 ft | 538 kts | 79° |
| 2026-04-25 17:40 | 37.23035 | -111.12048 | 36767 ft | 538 kts | 83° |
| 2026-04-25 17:40 | 37.24023 | -111.02728 | 36752 ft | 538 kts | 83° |
| 2026-04-25 17:41 | 37.25021 | -110.93406 | 36749 ft | 538 kts | 83° |
| 2026-04-25 17:41 | 37.25996 | -110.84140 | 36760 ft | 539 kts | 83° |
| 2026-04-25 17:42 | 37.26962 | -110.74799 | 36753 ft | 539 kts | 83° |
| 2026-04-25 17:42 | 37.27919 | -110.65465 | 36754 ft | 539 kts | 83° |
| 2026-04-25 17:43 | 37.28868 | -110.56121 | 36727 ft | 539 kts | 83° |
| 2026-04-25 17:43 | 37.29810 | -110.46776 | 36743 ft | 540 kts | 83° |
| 2026-04-25 17:44 | 37.30745 | -110.37415 | 36742 ft | 540 kts | 83° |
| 2026-04-25 17:44 | 37.31682 | -110.28107 | 36757 ft | 541 kts | 83° |
| 2026-04-25 17:45 | 37.32307 | -110.21840 | 36758 ft | 541 kts | 83° |
| 2026-04-25 17:45 | 37.33527 | -110.09334 | 36774 ft | 541 kts | 83° |
| 2026-04-25 17:46 | 37.34442 | -109.99953 | 36774 ft | 541 kts | 83° |
| 2026-04-25 17:46 | 37.35355 | -109.90561 | 36788 ft | 541 kts | 84° |
| 2026-04-25 17:47 | 37.36245 | -109.81227 | 36793 ft | 541 kts | 84° |
| 2026-04-25 17:47 | 37.37130 | -109.71828 | 36792 ft | 541 kts | 84° |
| 2026-04-25 17:48 | 37.38451 | -109.57736 | 36898 ft | 541 kts | 84° |
| 2026-04-25 17:49 | 37.39325 | -109.48335 | 36915 ft | 541 kts | 84° |
| 2026-04-25 17:49 | 37.40193 | -109.38933 | 36916 ft | 541 kts | 84° |
| 2026-04-25 17:50 | 37.41053 | -109.29542 | 36893 ft | 540 kts | 84° |
| 2026-04-25 17:50 | 37.41895 | -109.20215 | 36866 ft | 540 kts | 84° |
| 2026-04-25 17:51 | 37.42732 | -109.10812 | 36830 ft | 540 kts | 84° |
| 2026-04-25 17:51 | 37.43563 | -109.01424 | 36818 ft | 540 kts | 84° |
| 2026-04-25 17:52 | 37.44393 | -108.92042 | 36823 ft | 539 kts | 84° |
| 2026-04-25 17:52 | 37.45208 | -108.82662 | 36837 ft | 539 kts | 84° |
| 2026-04-25 17:53 | 37.46012 | -108.73276 | 36949 ft | 539 kts | 84° |
| 2026-04-25 17:53 | 37.46676 | -108.65480 | 36963 ft | 539 kts | 84° |
| 2026-04-25 17:54 | 37.47472 | -108.56101 | 36959 ft | 539 kts | 84° |
| 2026-04-25 17:54 | 37.48269 | -108.46714 | 36929 ft | 539 kts | 84° |
| 2026-04-25 17:55 | 37.49056 | -108.37328 | 36894 ft | 539 kts | 84° |
| 2026-04-25 17:55 | 37.49822 | -108.27928 | 36870 ft | 539 kts | 84° |
| 2026-04-25 17:56 | 37.50574 | -108.18582 | 36859 ft | 540 kts | 84° |
| 2026-04-25 17:56 | 37.51330 | -108.09176 | 36868 ft | 540 kts | 84° |
| 2026-04-25 17:57 | 37.52090 | -107.99779 | 36869 ft | 539 kts | 84° |
| 2026-04-25 17:57 | 37.52840 | -107.90361 | 36874 ft | 540 kts | 84° |
| 2026-04-25 17:58 | 37.53575 | -107.80944 | 36883 ft | 540 kts | 85° |
| 2026-04-25 17:58 | 37.54294 | -107.71598 | 36876 ft | 539 kts | 84° |
| 2026-04-25 17:59 | 37.55017 | -107.62203 | 36836 ft | 539 kts | 84° |
| 2026-04-25 17:59 | 37.55733 | -107.52797 | 36849 ft | 539 kts | 84° |
| 2026-04-25 18:00 | 37.56442 | -107.43367 | 36853 ft | 540 kts | 84° |
| 2026-04-25 18:00 | 37.57147 | -107.33951 | 36860 ft | 540 kts | 84° |
| 2026-04-25 18:01 | 37.57839 | -107.24541 | 36894 ft | 539 kts | 84° |
| 2026-04-25 18:01 | 37.58525 | -107.15133 | 36904 ft | 539 kts | 84° |
| 2026-04-25 18:02 | 37.59201 | -107.05731 | 36910 ft | 539 kts | 85° |
| 2026-04-25 18:02 | 37.59860 | -106.96384 | 36891 ft | 538 kts | 85° |
| 2026-04-25 18:03 | 37.60515 | -106.86989 | 36862 ft | 538 kts | 84° |
| 2026-04-25 18:03 | 37.61193 | -106.77594 | 36866 ft | 537 kts | 84° |
| 2026-04-25 18:04 | 37.61916 | -106.68221 | 36899 ft | 537 kts | 84° |
| 2026-04-25 18:04 | 37.62640 | -106.58848 | 36935 ft | 537 kts | 84° |
| 2026-04-25 18:05 | 37.63341 | -106.49473 | 36979 ft | 536 kts | 84° |
| 2026-04-25 18:05 | 37.64017 | -106.40159 | 37012 ft | 537 kts | 84° |
| 2026-04-25 18:06 | 37.64699 | -106.30778 | 37027 ft | 537 kts | 84° |
| 2026-04-25 18:06 | 37.65383 | -106.21381 | 36976 ft | 538 kts | 84° |
| 2026-04-25 18:07 | 37.66058 | -106.11955 | 36918 ft | 539 kts | 84° |
| 2026-04-25 18:07 | 37.66724 | -106.02529 | 36865 ft | 539 kts | 84° |
| 2026-04-25 18:08 | 37.67381 | -105.93098 | 36881 ft | 539 kts | 84° |
| 2026-04-25 18:08 | 37.68022 | -105.83676 | 36896 ft | 538 kts | 84° |
| 2026-04-25 18:09 | 37.68661 | -105.74277 | 36891 ft | 537 kts | 84° |
| 2026-04-25 18:09 | 37.69292 | -105.64953 | 36864 ft | 536 kts | 84° |
| 2026-04-25 18:10 | 37.69921 | -105.55574 | 36839 ft | 536 kts | 85° |
| 2026-04-25 18:10 | 37.70540 | -105.46180 | 36847 ft | 536 kts | 85° |
| 2026-04-25 18:11 | 37.71143 | -105.36808 | 36846 ft | 536 kts | 85° |
| 2026-04-25 18:11 | 37.71738 | -105.27436 | 36853 ft | 535 kts | 85° |
| 2026-04-25 18:12 | 37.72336 | -105.18041 | 36823 ft | 536 kts | 85° |
| 2026-04-25 18:12 | 37.72927 | -105.08644 | 36813 ft | 537 kts | 85° |
| 2026-04-25 18:13 | 37.73509 | -104.99227 | 36805 ft | 537 kts | 85° |
| 2026-04-25 18:13 | 37.74080 | -104.89820 | 36803 ft | 537 kts | 85° |
| 2026-04-25 18:14 | 37.74924 | -104.75755 | 36821 ft | 537 kts | 85° |
| 2026-04-25 18:14 | 37.75471 | -104.66336 | 36823 ft | 537 kts | 85° |
| 2026-04-25 18:15 | 37.76021 | -104.56928 | 36837 ft | 536 kts | 85° |
| 2026-04-25 18:15 | 37.76565 | -104.47527 | 36849 ft | 536 kts | 85° |
| 2026-04-25 18:16 | 37.77089 | -104.38180 | 36844 ft | 536 kts | 86° |
| 2026-04-25 18:17 | 37.77865 | -104.24067 | 36837 ft | 537 kts | 85° |
| 2026-04-25 18:17 | 37.78383 | -104.14635 | 36861 ft | 538 kts | 85° |
| 2026-04-25 18:18 | 37.78898 | -104.05185 | 36861 ft | 539 kts | 86° |
| 2026-04-25 18:18 | 37.79403 | -103.95737 | 36860 ft | 539 kts | 86° |
| 2026-04-25 18:19 | 37.79886 | -103.86271 | 36860 ft | 539 kts | 86° |
| 2026-04-25 18:19 | 37.80363 | -103.76793 | 36872 ft | 540 kts | 86° |
| 2026-04-25 18:20 | 37.80849 | -103.67316 | 36855 ft | 540 kts | 86° |
| 2026-04-25 18:20 | 37.81323 | -103.57901 | 36849 ft | 540 kts | 86° |
| 2026-04-25 18:21 | 37.81780 | -103.48406 | 36853 ft | 540 kts | 86° |
| 2026-04-25 18:21 | 37.82235 | -103.38908 | 36847 ft | 541 kts | 86° |
| 2026-04-25 18:22 | 37.82689 | -103.29399 | 36841 ft | 542 kts | 86° |
| 2026-04-25 18:22 | 37.83135 | -103.19860 | 36841 ft | 543 kts | 86° |
| 2026-04-25 18:23 | 37.83570 | -103.10380 | 36855 ft | 543 kts | 86° |
| 2026-04-25 18:23 | 37.83990 | -103.00832 | 36848 ft | 544 kts | 86° |
| 2026-04-25 18:24 | 37.84411 | -102.91253 | 36851 ft | 545 kts | 86° |
| 2026-04-25 18:24 | 37.84827 | -102.81666 | 36859 ft | 546 kts | 86° |
| 2026-04-25 18:25 | 37.85225 | -102.72066 | 36860 ft | 546 kts | 86° |
| 2026-04-25 18:25 | 37.85617 | -102.62465 | 36863 ft | 546 kts | 86° |
| 2026-04-25 18:26 | 37.86011 | -102.52847 | 36859 ft | 546 kts | 86° |
| 2026-04-25 18:26 | 37.86404 | -102.43253 | 36864 ft | 546 kts | 86° |
| 2026-04-25 18:27 | 37.86784 | -102.33658 | 36867 ft | 546 kts | 86° |
| 2026-04-25 18:27 | 37.87144 | -102.24123 | 36862 ft | 546 kts | 86° |
| 2026-04-25 18:28 | 37.87498 | -102.14534 | 36859 ft | 545 kts | 86° |
| 2026-04-25 18:28 | 37.87853 | -102.04932 | 36854 ft | 545 kts | 86° |
| 2026-04-25 18:29 | 37.88371 | -101.90551 | 36877 ft | 544 kts | 86° |
| 2026-04-25 18:30 | 37.89017 | -101.71400 | 36871 ft | 544 kts | 86° |
| 2026-04-25 18:30 | 37.89333 | -101.61820 | 36869 ft | 544 kts | 86° |
| 2026-04-25 18:31 | 37.89639 | -101.52317 | 36868 ft | 543 kts | 86° |
| 2026-04-25 18:31 | 37.89938 | -101.42766 | 36868 ft | 543 kts | 86° |
| 2026-04-25 18:32 | 37.90232 | -101.33204 | 36859 ft | 542 kts | 86° |
| 2026-04-25 18:32 | 37.90519 | -101.23660 | 36833 ft | 541 kts | 86° |
| 2026-04-25 18:33 | 37.90793 | -101.14194 | 36841 ft | 541 kts | 86° |
| 2026-04-25 18:33 | 37.91061 | -101.04667 | 36861 ft | 540 kts | 87° |
| 2026-04-25 18:34 | 37.91316 | -100.95159 | 36873 ft | 540 kts | 87° |
| 2026-04-25 18:34 | 37.91566 | -100.85657 | 36887 ft | 540 kts | 87° |
| 2026-04-25 18:35 | 37.91811 | -100.76145 | 36887 ft | 540 kts | 87° |
| 2026-04-25 18:35 | 37.92185 | -100.66644 | 36890 ft | 539 kts | 83° |
| 2026-04-25 18:36 | 37.92995 | -100.57271 | 36871 ft | 539 kts | 81° |
| 2026-04-25 18:36 | 37.93938 | -100.47859 | 36877 ft | 537 kts | 81° |
| 2026-04-25 18:37 | 37.94756 | -100.38465 | 36856 ft | 536 kts | 82° |
| 2026-04-25 18:37 | 37.95475 | -100.29067 | 36839 ft | 535 kts | 83° |
| 2026-04-25 18:38 | 37.96188 | -100.19691 | 36851 ft | 534 kts | 83° |
| 2026-04-25 18:38 | 37.96918 | -100.10326 | 36829 ft | 533 kts | 83° |
| 2026-04-25 18:39 | 37.97654 | -100.00994 | 36826 ft | 532 kts | 83° |
| 2026-04-25 18:39 | 37.98377 | -99.91664 | 36826 ft | 531 kts | 83° |
| 2026-04-25 18:40 | 37.99082 | -99.82401 | 36828 ft | 531 kts | 83° |
| 2026-04-25 18:40 | 37.99780 | -99.73081 | 36829 ft | 529 kts | 83° |
| 2026-04-25 18:41 | 38.00471 | -99.63792 | 36833 ft | 528 kts | 83° |
| 2026-04-25 18:41 | 38.01155 | -99.54510 | 36831 ft | 528 kts | 83° |
| 2026-04-25 18:42 | 38.01606 | -99.48374 | 36829 ft | 527 kts | 83° |
| 2026-04-25 18:42 | 38.02499 | -99.36058 | 36863 ft | 526 kts | 84° |
| 2026-04-25 18:43 | 38.03158 | -99.26818 | 36870 ft | 525 kts | 84° |
| 2026-04-25 18:43 | 38.03698 | -99.19088 | 36877 ft | 524 kts | 84° |
| 2026-04-25 18:44 | 38.04336 | -99.09943 | 36881 ft | 524 kts | 84° |
| 2026-04-25 18:44 | 38.04979 | -99.00732 | 36870 ft | 522 kts | 84° |
| 2026-04-25 18:45 | 38.05607 | -98.91543 | 36866 ft | 522 kts | 85° |
| 2026-04-25 18:45 | 38.06224 | -98.82362 | 36862 ft | 522 kts | 85° |
| 2026-04-25 18:46 | 38.06838 | -98.73178 | 36861 ft | 522 kts | 85° |
| 2026-04-25 18:46 | 38.07443 | -98.64015 | 36845 ft | 524 kts | 84° |
| 2026-04-25 18:47 | 38.08044 | -98.54785 | 36818 ft | 525 kts | 85° |
| 2026-04-25 18:47 | 38.08639 | -98.45527 | 36817 ft | 526 kts | 85° |
| 2026-04-25 18:48 | 38.09218 | -98.36261 | 36846 ft | 527 kts | 85° |
| 2026-04-25 18:48 | 38.09800 | -98.26981 | 36868 ft | 527 kts | 85° |
| 2026-04-25 18:49 | 38.10381 | -98.17708 | 36871 ft | 526 kts | 85° |
| 2026-04-25 18:49 | 38.10943 | -98.08493 | 36883 ft | 526 kts | 85° |
| 2026-04-25 18:50 | 38.11497 | -97.99240 | 36896 ft | 526 kts | 85° |
| 2026-04-25 18:50 | 38.12047 | -97.89981 | 36901 ft | 525 kts | 85° |
| 2026-04-25 18:51 | 38.12497 | -97.82308 | 36900 ft | 524 kts | 85° |
| 2026-04-25 18:51 | 38.13117 | -97.71495 | 36897 ft | 524 kts | 85° |
| 2026-04-25 18:52 | 38.13649 | -97.62255 | 36889 ft | 524 kts | 85° |
| 2026-04-25 18:52 | 38.14173 | -97.53074 | 36898 ft | 524 kts | 85° |
| 2026-04-25 18:53 | 38.14687 | -97.43832 | 36907 ft | 524 kts | 86° |
| 2026-04-25 18:53 | 38.15181 | -97.34597 | 36910 ft | 524 kts | 86° |
| 2026-04-25 18:54 | 38.15925 | -97.20744 | 36907 ft | 523 kts | 86° |
| 2026-04-25 18:55 | 38.16417 | -97.11520 | 36904 ft | 523 kts | 86° |
| 2026-04-25 18:55 | 38.16897 | -97.02286 | 36898 ft | 523 kts | 86° |
| 2026-04-25 18:56 | 38.17369 | -96.93052 | 36887 ft | 523 kts | 86° |
| 2026-04-25 18:56 | 38.17834 | -96.83884 | 36883 ft | 523 kts | 86° |
| 2026-04-25 18:57 | 38.18288 | -96.74653 | 36880 ft | 523 kts | 86° |
| 2026-04-25 18:57 | 38.18736 | -96.65422 | 36879 ft | 523 kts | 86° |
| 2026-04-25 18:58 | 38.19175 | -96.56179 | 36880 ft | 523 kts | 86° |
| 2026-04-25 18:58 | 38.19830 | -96.42317 | 36883 ft | 523 kts | 86° |
| 2026-04-25 18:59 | 38.20673 | -96.23895 | 36891 ft | 523 kts | 86° |
| 2026-04-25 19:00 | 38.21288 | -96.10027 | 36891 ft | 523 kts | 86° |
| 2026-04-25 19:01 | 38.21882 | -95.96149 | 36910 ft | 523 kts | 86° |
| 2026-04-25 19:01 | 38.22272 | -95.86914 | 36916 ft | 523 kts | 86° |
| 2026-04-25 19:02 | 38.22841 | -95.73067 | 36921 ft | 522 kts | 86° |
| 2026-04-25 19:03 | 38.23271 | -95.62353 | 36898 ft | 521 kts | 86° |
| 2026-04-25 19:03 | 38.23737 | -95.50129 | 36903 ft | 519 kts | 86° |
| 2026-04-25 19:04 | 38.24266 | -95.36368 | 36902 ft | 518 kts | 86° |
| 2026-04-25 19:05 | 38.24939 | -95.18116 | 36913 ft | 515 kts | 87° |
| 2026-04-25 19:06 | 38.25263 | -95.09081 | 36911 ft | 514 kts | 87° |
| 2026-04-25 19:06 | 38.25734 | -94.95461 | 36910 ft | 513 kts | 87° |
| 2026-04-25 19:07 | 38.26183 | -94.81837 | 36912 ft | 512 kts | 87° |
| 2026-04-25 19:08 | 38.26614 | -94.68255 | 36904 ft | 512 kts | 87° |
| 2026-04-25 19:09 | 38.27122 | -94.51684 | 36914 ft | 512 kts | 87° |
| 2026-04-25 19:09 | 38.28446 | -94.41330 | 36915 ft | 510 kts | 76° |
| 2026-04-25 19:10 | 38.29183 | -94.36917 | 36919 ft | 510 kts | 76° |
| 2026-04-25 19:10 | 38.30644 | -94.28076 | 36924 ft | 510 kts | 77° |
| 2026-04-25 19:11 | 38.32073 | -94.19233 | 36925 ft | 510 kts | 77° |
| 2026-04-25 19:11 | 38.33500 | -94.10387 | 36917 ft | 510 kts | 77° |
| 2026-04-25 19:12 | 38.34918 | -94.01597 | 36910 ft | 510 kts | 77° |
| 2026-04-25 19:12 | 38.36353 | -93.92744 | 36915 ft | 510 kts | 77° |
| 2026-04-25 19:13 | 38.37778 | -93.83875 | 36912 ft | 510 kts | 77° |
| 2026-04-25 19:13 | 38.39180 | -93.75018 | 36930 ft | 510 kts | 77° |
| 2026-04-25 19:14 | 38.40576 | -93.66148 | 36932 ft | 510 kts | 77° |
| 2026-04-25 19:14 | 38.41978 | -93.57277 | 36929 ft | 510 kts | 77° |
| 2026-04-25 19:15 | 38.43375 | -93.48398 | 36940 ft | 510 kts | 77° |
| 2026-04-25 19:15 | 38.44751 | -93.39578 | 36943 ft | 510 kts | 77° |
| 2026-04-25 19:16 | 38.46131 | -93.30693 | 36945 ft | 510 kts | 77° |
| 2026-04-25 19:16 | 38.47491 | -93.21807 | 36942 ft | 510 kts | 77° |
| 2026-04-25 19:17 | 38.48850 | -93.12924 | 36936 ft | 510 kts | 77° |
| 2026-04-25 19:17 | 38.50214 | -93.04030 | 36936 ft | 510 kts | 77° |
| 2026-04-25 19:18 | 38.51566 | -92.95137 | 36930 ft | 510 kts | 78° |
| 2026-04-25 19:18 | 38.52900 | -92.86293 | 36933 ft | 510 kts | 78° |
| 2026-04-25 19:19 | 38.54240 | -92.77387 | 36934 ft | 510 kts | 78° |
| 2026-04-25 19:19 | 38.55569 | -92.68466 | 36941 ft | 511 kts | 78° |
| 2026-04-25 19:20 | 38.56886 | -92.59553 | 36947 ft | 510 kts | 78° |
| 2026-04-25 19:20 | 38.58205 | -92.50637 | 36949 ft | 510 kts | 78° |
| 2026-04-25 19:21 | 38.59517 | -92.41727 | 36948 ft | 510 kts | 78° |
| 2026-04-25 19:21 | 38.61444 | -92.28528 | 36139 ft | 502 kts | 78° |
| 2026-04-25 19:22 | 38.62089 | -92.24113 | 35336 ft | 505 kts | 78° |
| 2026-04-25 19:22 | 38.62731 | -92.19696 | 34564 ft | 507 kts | 78° |
| 2026-04-25 19:22 | 38.64008 | -92.10806 | 32958 ft | 508 kts | 78° |
| 2026-04-25 19:23 | 38.64645 | -92.06350 | 32107 ft | 507 kts | 78° |
| 2026-04-25 19:23 | 38.65899 | -91.97552 | 30515 ft | 503 kts | 78° |
| 2026-04-25 19:23 | 38.66524 | -91.93156 | 29692 ft | 501 kts | 78° |
| 2026-04-25 19:24 | 38.67147 | -91.88779 | 28784 ft | 498 kts | 78° |
| 2026-04-25 19:24 | 38.67767 | -91.84433 | 27916 ft | 496 kts | 78° |
| 2026-04-25 19:24 | 38.68978 | -91.75793 | 26257 ft | 490 kts | 80° |
| 2026-04-25 19:25 | 38.69236 | -91.67127 | 24689 ft | 484 kts | 89° |
| 2026-04-25 19:25 | 38.69253 | -91.62831 | 23935 ft | 480 kts | 89° |
| 2026-04-25 19:25 | 38.69272 | -91.58575 | 23131 ft | 476 kts | 89° |
| 2026-04-25 19:26 | 38.69293 | -91.54356 | 22266 ft | 472 kts | 89° |
| 2026-04-25 19:26 | 38.69312 | -91.50174 | 21430 ft | 468 kts | 89° |
| 2026-04-25 19:26 | 38.69319 | -91.46031 | 20606 ft | 463 kts | 90° |
| 2026-04-25 19:26 | 38.69322 | -91.41956 | 20065 ft | 452 kts | 90° |
| 2026-04-25 19:27 | 38.69327 | -91.38032 | 19589 ft | 441 kts | 90° |
| 2026-04-25 19:27 | 38.69331 | -91.36710 | 19424 ft | 436 kts | 90° |
| 2026-04-25 19:27 | 38.69360 | -91.30562 | 18152 ft | 397 kts | 89° |
| 2026-04-25 19:27 | 38.69381 | -91.27102 | 17224 ft | 380 kts | 90° |
| 2026-04-25 19:28 | 38.69402 | -91.23779 | 16322 ft | 366 kts | 90° |
| 2026-04-25 19:28 | 38.69417 | -91.20574 | 15451 ft | 354 kts | 90° |
| 2026-04-25 19:28 | 38.69454 | -91.17467 | 14600 ft | 344 kts | 90° |
| 2026-04-25 19:28 | 38.69527 | -91.14445 | 13756 ft | 335 kts | 90° |
| 2026-04-25 19:29 | 38.69663 | -91.11514 | 12865 ft | 326 kts | 82° |
| 2026-04-25 19:29 | 38.70275 | -91.08749 | 11960 ft | 320 kts | 67° |
| 2026-04-25 19:29 | 38.71337 | -91.06288 | 11088 ft | 312 kts | 61° |
| 2026-04-25 19:29 | 38.72409 | -91.03950 | 10351 ft | 303 kts | 61° |
| 2026-04-25 19:30 | 38.73426 | -91.01710 | 10094 ft | 279 kts | 62° |
| 2026-04-25 19:30 | 38.74392 | -90.99564 | 9651 ft | 277 kts | 62° |
| 2026-04-25 19:30 | 38.75344 | -90.97439 | 9132 ft | 273 kts | 62° |
| 2026-04-25 19:30 | 38.76287 | -90.95338 | 8621 ft | 271 kts | 62° |
| 2026-04-25 19:31 | 38.77227 | -90.93252 | 8120 ft | 271 kts | 62° |
| 2026-04-25 19:31 | 38.78175 | -90.91150 | 7631 ft | 273 kts | 62° |
| 2026-04-25 19:31 | 38.79117 | -90.89029 | 7136 ft | 274 kts | 66° |
| 2026-04-25 19:31 | 38.79708 | -90.86768 | 6939 ft | 261 kts | 81° |
| 2026-04-25 19:32 | 38.79873 | -90.85253 | 6779 ft | 258 kts | 84° |
| 2026-04-25 19:32 | 38.80097 | -90.82972 | 6572 ft | 257 kts | 84° |
| 2026-04-25 19:32 | 38.80321 | -90.80703 | 6374 ft | 256 kts | 85° |
| 2026-04-25 19:32 | 38.80474 | -90.79173 | 6238 ft | 256 kts | 84° |
| 2026-04-25 19:33 | 38.80774 | -90.76186 | 5980 ft | 255 kts | 84° |
| 2026-04-25 19:33 | 38.81001 | -90.73939 | 5731 ft | 253 kts | 83° |
| 2026-04-25 19:33 | 38.81225 | -90.71708 | 5484 ft | 252 kts | 83° |
| 2026-04-25 19:33 | 38.81448 | -90.69487 | 5241 ft | 250 kts | 83° |
| 2026-04-25 19:34 | 38.81670 | -90.67281 | 4997 ft | 248 kts | 83° |
| 2026-04-25 19:34 | 38.81888 | -90.65094 | 4758 ft | 247 kts | 83° |
| 2026-04-25 19:34 | 38.82103 | -90.62919 | 4509 ft | 245 kts | 83° |
| 2026-04-25 19:34 | 38.82316 | -90.60749 | 4270 ft | 245 kts | 83° |
| 2026-04-25 19:35 | 38.82529 | -90.58584 | 4031 ft | 244 kts | 83° |
| 2026-04-25 19:35 | 38.82742 | -90.56422 | 3793 ft | 244 kts | 83° |
| 2026-04-25 19:35 | 38.82935 | -90.54263 | 3553 ft | 243 kts | 88° |
| 2026-04-25 19:35 | 38.82684 | -90.52123 | 3305 ft | 245 kts | 109° |
| 2026-04-25 19:36 | 38.81863 | -90.50175 | 3029 ft | 250 kts | 121° |
| 2026-04-25 19:36 | 38.80929 | -90.48285 | 3011 ft | 252 kts | 121° |
| 2026-04-25 19:36 | 38.79989 | -90.46381 | 3003 ft | 254 kts | 121° |
| 2026-04-25 19:36 | 38.79053 | -90.44486 | 3013 ft | 255 kts | 121° |
| 2026-04-25 19:37 | 38.78106 | -90.42568 | 3011 ft | 256 kts | 121° |
| 2026-04-25 19:37 | 38.77123 | -90.40657 | 3003 ft | 256 kts | 124° |
| 2026-04-25 19:37 | 38.76011 | -90.38868 | 3005 ft | 257 kts | 128° |
| 2026-04-25 19:37 | 38.74967 | -90.37009 | 3008 ft | 257 kts | 120° |
| 2026-04-25 19:38 | 38.73886 | -90.35205 | 3006 ft | 251 kts | 133° |
| 2026-04-25 19:38 | 38.72631 | -90.33734 | 2999 ft | 237 kts | 142° |
| 2026-04-25 19:38 | 38.71141 | -90.33026 | 3020 ft | 228 kts | 172° |
| 2026-04-25 19:38 | 38.69563 | -90.32962 | 3009 ft | 226 kts | 177° |
| 2026-04-25 19:39 | 38.67995 | -90.32976 | 3015 ft | 223 kts | 178° |
| 2026-04-25 19:39 | 38.66516 | -90.33005 | 3009 ft | 204 kts | 178° |
| 2026-04-25 19:39 | 38.65133 | -90.32979 | 2998 ft | 195 kts | 168° |
| 2026-04-25 19:39 | 38.64001 | -90.32173 | 3006 ft | 186 kts | 129° |
| 2026-04-25 19:40 | 38.63407 | -90.30727 | 3010 ft | 184 kts | 110° |
| 2026-04-25 19:40 | 38.62968 | -90.29193 | 2869 ft | 182 kts | 108° |
| 2026-04-25 19:40 | 38.62547 | -90.27664 | 2603 ft | 182 kts | 110° |
| 2026-04-25 19:40 | 38.62032 | -90.26191 | 2322 ft | 180 kts | 114° |
| 2026-04-25 19:41 | 38.61453 | -90.24853 | 2038 ft | 162 kts | 119° |
| 2026-04-25 19:41 | 38.60897 | -90.23700 | 1746 ft | 145 kts | 119° |
| 2026-04-25 19:41 | 38.60385 | -90.22647 | 1527 ft | 135 kts | 118° |
| 2026-04-25 19:41 | 38.60066 | -90.21969 | 1383 ft | 134 kts | 118° |
| 2026-04-25 19:42 | 38.59419 | -90.20612 | 1175 ft | 134 kts | 117° |
| 2026-04-25 19:42 | 38.58932 | -90.19619 | 1007 ft | 133 kts | 118° |
| 2026-04-25 19:42 | 38.58446 | -90.18624 | 864 ft | 131 kts | 119° |
| 2026-04-25 19:42 | 38.57953 | -90.17636 | 661 ft | 131 kts | 119° |
| 2026-04-25 19:43 | 38.57470 | -90.16645 | 481 ft | 132 kts | 119° |
| 2026-04-25 19:43 | 38.57001 | -90.15691 | 410 ft | 110 kts | 122° |
| 2026-04-25 19:43 | 38.56753 | -90.15192 | 414 ft | 23 kts | 122° |
| 2026-04-25 19:43 | 38.56681 | -90.15049 | 418 ft | 18 kts | 123° |
| 2026-04-25 19:44 | 38.56614 | -90.14914 | 419 ft | 14 kts | 112° |
| 2026-04-25 19:44 | 38.56675 | -90.14828 | 418 ft | 11 kts | 20° |
| 2026-04-25 19:44 | 38.56717 | -90.14877 | 422 ft | 12 kts | 302° |
| 2026-04-25 19:44 | 38.56802 | -90.15050 | 420 ft | 28 kts | 302° |
| 2026-04-25 19:45 | 38.56902 | -90.15253 | 422 ft | 27 kts | 302° |
| 2026-04-25 19:45 | 38.57005 | -90.15458 | 418 ft | 29 kts | 303° |
| 2026-04-25 19:45 | 38.57112 | -90.15677 | 416 ft | 30 kts | 302° |
| 2026-04-25 19:45 | 38.57220 | -90.15898 | 418 ft | 29 kts | 302° |
| 2026-04-25 19:46 | 38.57326 | -90.16111 | 420 ft | 25 kts | 302° |
| 2026-04-25 19:46 | 38.57418 | -90.16300 | 412 ft | 25 kts | 302° |
| 2026-04-25 19:46 | 38.57482 | -90.16388 | 414 ft | 8 kts | 8° |
| 2026-04-25 19:46 | 38.57523 | -90.16334 | 420 ft | 12 kts | 47° |
| 2026-04-25 19:47 | 38.57614 | -90.16211 | 418 ft | 23 kts | 47° |
| 2026-04-25 19:47 | 38.57710 | -90.16078 | 414 ft | 15 kts | 53° |
| 2026-04-25 19:47 | 38.57681 | -90.16001 | 413 ft | 7 kts | 136° |
| 2026-04-25 19:47 | 38.57678 | -90.15997 | 414 ft | 0 kts | 136° |